Terminal Aerodrome Forecast
Issued by NWS

Home | Current Version | Previous Version | Text Only | Print | Product List | Glossary On
Versions: 1 2 3 4 5 6 7 8 9 10 11 12 13 14 15 16 17 18 19 20 21 22 23 24 25 26 27 28 29 30 31 32 33 34 35 36 37 38 39 40 41 42 43 44 45
000
FTUS41 KBOX 052206 AAC
TAFFMH
TAF AMD
KFMH 052206Z 0522/0618 01008KT 1SM -SN SCT003 OVC015
     FM060000 33008KT 2SM -SN SCT012 OVC020
     FM060400 34009KT P6SM OVC015
     FM060500 34010KT P6SM BKN050
     FM060900 34008KT P6SM SKC
     FM061700 33004KT P6SM SCT250=

USA.gov is the U.S. government's official web portal to all federal, state and local government web resources and services.